Time;durP1;ratioP1;P1;durP2;ratioP2;P2;SDS_P1;SDS_P2;PMS_P1;PMS_P2;Temp;Humidity;BMP_temperature;BMP_pressure;BME280_temperature;BME280_humidity;BME280_pressure;Samples;Min_cycle;Max_cycle;Signal;HPM_P1;HPM_P2
2022/05/12 00:00:18;;;;;;;25.70;4.95;;;19.10;99.90;;;;;;4995219;28;20026;-72
2022/05/12 00:02:45;;;;;;;24.38;3.90;;;19.20;99.90;;;;;;4994976;28;20085;-73
2022/05/12 00:05:14;;;;;;;20.40;3.78;;;19.30;99.90;;;;;;4993542;28;20495;-74
2022/05/12 00:07:43;;;;;;;32.22;4.43;;;19.30;99.90;;;;;;4995059;28;20494;-73
2022/05/12 00:10:11;;;;;;;24.77;3.70;;;19.40;99.90;;;;;;4994905;28;20047;-73
2022/05/12 00:12:41;;;;;;;20.20;3.67;;;19.50;99.90;;;;;;4994992;28;20113;-74
2022/05/12 00:15:13;;;;;;;26.08;4.38;;;19.60;99.90;;;;;;4994930;28;20520;-74
2022/05/12 00:17:41;;;;;;;26.60;4.07;;;19.60;99.90;;;;;;4994750;28;20027;-74
2022/05/12 00:20:09;;;;;;;25.10;3.75;;;19.60;99.90;;;;;;4994989;28;20037;-73
2022/05/12 00:22:37;;;;;;;26.90;4.45;;;19.60;99.90;;;;;;4994748;28;20446;-73
2022/05/12 00:25:09;;;;;;;22.00;3.55;;;19.60;99.90;;;;;;4994653;28;20096;-73
2022/05/12 00:27:36;;;;;;;23.05;3.90;;;19.60;99.90;;;;;;4993509;28;20054;-74
2022/05/12 00:30:05;;;;;;;22.33;3.35;;;19.60;99.90;;;;;;4994643;28;20402;-73
2022/05/12 00:32:32;;;;;;;24.65;3.95;;;19.50;99.90;;;;;;4994630;28;20037;-72
2022/05/12 00:34:59;;;;;;;28.70;3.78;;;19.50;99.90;;;;;;4993227;28;20034;-72
2022/05/12 00:37:27;;;;;;;19.20;3.40;;;19.50;99.90;;;;;;4994386;28;20479;-74
2022/05/12 00:39:54;;;;;;;23.83;4.30;;;19.40;99.90;;;;;;4994384;28;20080;-74
2022/05/12 00:42:22;;;;;;;24.30;3.70;;;19.30;99.90;;;;;;4994571;28;20105;-74
2022/05/12 00:44:49;;;;;;;25.05;3.90;;;19.20;99.90;;;;;;4994374;28;20026;-74
2022/05/12 00:47:16;;;;;;;20.60;3.60;;;19.20;99.90;;;;;;4994434;28;20026;-74
2022/05/12 00:49:45;;;;;;;24.67;4.22;;;19.20;99.90;;;;;;4994318;28;20018;-75
2022/05/12 00:52:21;;;;;;;21.83;3.75;;;19.20;99.90;;;;;;4993040;28;20061;-74
2022/05/12 00:55:02;;;;;;;20.60;3.45;;;19.20;99.90;;;;;;4994345;28;20069;-75
2022/05/12 00:57:58;;;;;;;25.20;4.15;;;19.30;99.90;;;;;;4994139;28;20031;-75
2022/05/12 01:00:25;;;;;;;23.35;3.70;;;19.30;99.90;;;;;;4992827;28;20030;-75
2022/05/12 01:02:56;;;;;;;22.15;3.72;;;19.30;99.90;;;;;;4994150;28;20110;-75
2022/05/12 01:05:25;;;;;;;27.63;4.32;;;19.40;99.90;;;;;;4993948;28;20042;-75
2022/05/12 01:07:55;;;;;;;32.85;5.70;;;19.40;99.90;;;;;;4994095;28;20033;-74
2022/05/12 01:10:24;;;;;;;24.25;4.55;;;19.40;99.90;;;;;;4992530;28;20027;-74
2022/05/12 01:12:52;;;;;;;26.00;4.03;;;19.40;99.90;;;;;;4993393;28;20026;-75
2022/05/12 01:15:24;;;;;;;28.88;4.88;;;19.50;99.90;;;;;;4993738;28;20475;-74
2022/05/12 01:18:03;;;;;;;37.53;4.88;;;19.60;99.90;;;;;;4993786;28;20424;-74
2022/05/12 01:20:30;;;;;;;28.83;5.00;;;19.70;99.90;;;;;;4992533;28;20563;-74
2022/05/12 01:23:16;;;;;;;31.50;4.97;;;19.80;99.90;;;;;;4993619;28;20023;-73
2022/05/12 01:25:43;;;;;;;27.10;4.50;;;19.80;99.90;;;;;;4994153;28;20018;-74
2022/05/12 01:28:11;;;;;;;23.90;4.95;;;20.00;99.90;;;;;;4993736;28;20064;-74
2022/05/12 01:30:38;;;;;;;27.40;5.03;;;20.00;99.90;;;;;;4992416;28;20022;-74
2022/05/12 01:33:06;;;;;;;31.10;5.03;;;20.10;99.90;;;;;;4993521;28;20018;-75
2022/05/12 01:35:33;;;;;;;24.80;4.20;;;20.10;99.90;;;;;;4992284;28;20053;-75
2022/05/12 01:38:01;;;;;;;27.63;5.15;;;20.10;99.90;;;;;;4993915;28;20018;-73
2022/05/12 01:40:28;;;;;;;35.72;5.35;;;20.20;99.90;;;;;;4992139;28;20034;-73
2022/05/12 01:42:56;;;;;;;22.60;3.95;;;20.30;99.90;;;;;;4993575;28;20033;-73
2022/05/12 01:45:24;;;;;;;24.65;4.40;;;20.30;99.90;;;;;;4992059;28;20076;-73
2022/05/12 01:47:51;;;;;;;25.52;4.50;;;20.40;99.90;;;;;;4993296;28;20019;-73
2022/05/12 01:50:21;;;;;;;30.95;5.93;;;20.50;99.90;;;;;;4993340;28;20050;-74
2022/05/12 01:52:49;;;;;;;28.45;5.00;;;20.40;99.90;;;;;;4991927;28;20035;-73
2022/05/12 01:55:32;;;;;;;25.65;4.53;;;20.30;99.90;;;;;;4992029;28;20487;-73
2022/05/12 01:57:59;;;;;;;34.33;4.97;;;20.40;99.90;;;;;;4993160;28;20018;-73
2022/05/12 02:00:29;;;;;;;27.00;4.22;;;20.50;99.90;;;;;;4993349;28;20050;-73
2022/05/12 02:03:00;;;;;;;31.90;4.63;;;20.50;99.90;;;;;;4993491;28;20106;-73
2022/05/12 02:05:33;;;;;;;34.63;4.80;;;20.50;99.90;;;;;;4992921;28;20819;-73
2022/05/12 02:08:00;;;;;;;34.72;5.00;;;20.60;99.90;;;;;;4993163;28;20025;-73
2022/05/12 02:10:35;;;;;;;32.97;6.07;;;20.70;99.90;;;;;;4991827;28;20034;-73
2022/05/12 02:13:02;;;;;;;30.05;5.82;;;20.80;99.90;;;;;;4993077;28;20495;-73
2022/05/12 02:15:30;;;;;;;27.60;4.10;;;21.00;99.90;;;;;;4993194;28;20023;-73
2022/05/12 02:17:57;;;;;;;30.42;5.05;;;21.00;99.90;;;;;;4993007;28;20165;-74
2022/05/12 02:20:25;;;;;;;29.33;5.97;;;21.10;99.90;;;;;;4991714;28;20037;-75
2022/05/12 02:22:52;;;;;;;30.85;4.82;;;21.10;99.90;;;;;;4992914;28;20417;-76
2022/05/12 02:25:20;;;;;;;36.13;5.95;;;21.10;99.90;;;;;;4993480;28;20019;-73
2022/05/12 02:27:48;;;;;;;28.92;4.32;;;21.00;99.90;;;;;;4995540;28;20033;-74
2022/05/12 02:30:20;;;;;;;26.58;4.72;;;20.90;99.90;;;;;;4996792;28;20072;-73
2022/05/12 02:32:47;;;;;;;28.40;4.78;;;20.90;99.90;;;;;;4995654;28;20117;-74
2022/05/12 02:35:15;;;;;;;27.17;5.35;;;20.90;99.90;;;;;;4996875;28;20029;-73
2022/05/12 02:37:43;;;;;;;26.20;5.05;;;20.80;99.90;;;;;;4996869;28;20023;-73
2022/05/12 02:40:13;;;;;;;33.25;5.60;;;20.80;99.90;;;;;;4996698;28;20414;-74
2022/05/12 02:42:41;;;;;;;26.92;4.53;;;20.80;99.90;;;;;;4995425;28;20085;-73
2022/05/12 02:45:09;;;;;;;24.50;4.22;;;20.70;99.90;;;;;;4996668;28;20027;-73
2022/05/12 02:47:36;;;;;;;22.60;4.20;;;20.60;99.90;;;;;;4995345;28;20479;-75
2022/05/12 02:50:05;;;;;;;22.83;4.65;;;20.50;99.90;;;;;;4996537;28;20431;-75
2022/05/12 02:52:32;;;;;;;31.08;5.40;;;20.40;99.90;;;;;;4995338;28;20054;-75
2022/05/12 02:55:00;;;;;;;29.05;4.97;;;20.20;99.90;;;;;;4997169;28;20396;-76
2022/05/12 02:57:27;;;;;;;26.88;4.50;;;20.10;99.90;;;;;;4996830;28;20104;-75
2022/05/12 02:59:54;;;;;;;24.73;4.55;;;20.00;99.90;;;;;;4996624;28;20391;-76
2022/05/12 03:02:22;;;;;;;24.55;4.32;;;19.80;99.90;;;;;;4996400;28;20026;-74
2022/05/12 03:04:49;;;;;;;21.45;4.13;;;19.70;99.90;;;;;;4994764;28;20122;-74
2022/05/12 03:07:17;;;;;;;21.27;3.67;;;19.60;99.90;;;;;;4995087;28;20054;-75
2022/05/12 03:09:44;;;;;;;22.85;4.70;;;19.50;99.90;;;;;;4995010;28;20391;-74
2022/05/12 03:12:12;;;;;;;26.13;4.63;;;19.50;99.90;;;;;;4994997;28;20030;-74
2022/05/12 03:14:39;;;;;;;26.30;4.50;;;19.60;99.90;;;;;;4994811;28;20399;-74
2022/05/12 03:17:07;;;;;;;25.80;3.65;;;19.70;99.90;;;;;;4996102;28;20109;-73
2022/05/12 03:19:35;;;;;;;24.70;4.53;;;19.80;99.90;;;;;;4995993;28;20113;-75
2022/05/12 03:22:02;;;;;;;24.23;3.95;;;19.80;99.90;;;;;;4994689;28;20036;-74
2022/05/12 03:24:29;;;;;;;32.30;5.15;;;19.80;99.90;;;;;;4994645;28;20044;-74
2022/05/12 03:26:57;;;;;;;25.90;4.18;;;19.80;99.90;;;;;;4996074;28;20026;-76
2022/05/12 03:29:25;;;;;;;32.33;4.95;;;19.90;99.90;;;;;;4994584;28;20579;-74
2022/05/12 03:31:52;;;;;;;32.05;5.05;;;20.10;99.90;;;;;;4994534;28;20041;-74
2022/05/12 03:34:19;;;;;;;31.48;5.10;;;20.10;99.90;;;;;;4995726;28;20446;-74
2022/05/12 03:36:46;;;;;;;25.70;3.97;;;20.20;99.90;;;;;;4995124;28;20019;-74
2022/05/12 03:39:14;;;;;;;32.55;5.38;;;20.30;99.90;;;;;;4995758;28;20058;-75
2022/05/12 03:41:41;;;;;;;27.27;4.70;;;20.40;99.90;;;;;;4994336;28;20030;-75
2022/05/12 03:46:54;;;;;;;30.38;4.60;;;20.40;99.90;;;;;;4995608;28;20033;-74
2022/05/12 03:49:21;;;;;;;31.05;5.60;;;20.40;99.90;;;;;;4995577;28;20046;-75
2022/05/12 03:51:48;;;;;;;33.85;5.40;;;20.40;99.90;;;;;;4995383;28;20026;-74
2022/05/12 03:54:16;;;;;;;35.60;5.57;;;20.40;99.90;;;;;;4994212;28;20031;-74
2022/05/12 03:56:43;;;;;;;34.75;6.38;;;20.40;99.90;;;;;;4995354;28;20061;-74
2022/05/12 03:59:10;;;;;;;33.58;4.82;;;20.50;99.90;;;;;;4994119;28;20026;-74
2022/05/12 04:01:38;;;;;;;30.20;5.43;;;20.50;99.90;;;;;;4995159;28;20037;-75
2022/05/12 04:04:05;;;;;;;32.33;5.85;;;20.50;99.90;;;;;;4995182;28;20026;-75
2022/05/12 04:06:33;;;;;;;28.17;4.82;;;20.60;99.90;;;;;;4993743;28;20449;-74
2022/05/12 04:09:00;;;;;;;23.92;4.53;;;20.60;99.90;;;;;;4993945;28;20058;-75
2022/05/12 04:11:27;;;;;;;28.50;5.30;;;20.60;99.90;;;;;;4995048;28;20022;-74
2022/05/12 04:13:55;;;;;;;28.27;5.60;;;20.60;99.90;;;;;;4993883;28;20112;-75
2022/05/12 04:16:23;;;;;;;28.55;4.72;;;20.50;99.90;;;;;;4995201;28;20018;-74
2022/05/12 04:18:50;;;;;;;25.77;4.82;;;20.50;99.90;;;;;;4995499;28;20032;-74
2022/05/12 04:21:18;;;;;;;28.85;5.00;;;20.40;99.90;;;;;;4994833;28;20034;-75
2022/05/12 04:23:45;;;;;;;23.80;4.30;;;20.50;99.90;;;;;;4994876;28;20019;-74
2022/05/12 04:26:12;;;;;;;25.42;5.07;;;20.40;99.90;;;;;;4994773;28;20043;-74
2022/05/12 04:28:40;;;;;;;31.15;5.40;;;20.40;99.90;;;;;;4995073;28;20081;-75
2022/05/12 04:31:07;;;;;;;29.73;4.80;;;20.40;99.90;;;;;;4993474;28;20030;-74
2022/05/12 04:36:20;;;;;;;30.92;5.75;;;20.40;99.90;;;;;;4994711;28;20479;-74
2022/05/12 04:38:47;;;;;;;29.42;5.53;;;20.40;99.90;;;;;;4994563;28;20022;-74
2022/05/12 04:41:16;;;;;;;22.83;4.13;;;20.40;99.90;;;;;;4994409;28;20073;-74
2022/05/12 04:43:43;;;;;;;24.95;5.43;;;20.40;99.90;;;;;;4994555;28;20079;-75
2022/05/12 04:46:10;;;;;;;24.88;4.55;;;20.40;99.90;;;;;;4994437;28;20015;-75
2022/05/12 04:48:39;;;;;;;28.27;4.88;;;20.40;99.90;;;;;;4992117;28;20057;-74
2022/05/12 04:51:08;;;;;;;25.95;4.82;;;20.40;99.90;;;;;;4994410;28;20030;-76
2022/05/12 04:53:35;;;;;;;25.00;4.13;;;20.40;99.90;;;;;;4992755;28;20026;-76
2022/05/12 04:56:05;;;;;;;;;;;20.40;99.90;;;;;;4994452;28;20054;-73
2022/05/12 04:58:32;;;;;;;28.50;5.32;;;20.40;99.90;;;;;;4994099;28;19905;-73
2022/05/12 05:01:00;;;;;;;27.65;4.25;;;20.40;99.90;;;;;;4994123;28;20030;-73
2022/05/12 05:03:27;;;;;;;25.27;4.07;;;20.40;99.90;;;;;;4994111;28;20077;-72
2022/05/12 05:05:54;;;;;;;24.00;4.82;;;20.40;99.90;;;;;;4993905;28;20038;-72
2022/05/12 05:08:23;;;;;;;26.83;4.57;;;20.40;99.90;;;;;;4994050;28;20061;-72
2022/05/12 05:10:55;;;;;;;23.15;4.60;;;20.40;99.90;;;;;;4994021;28;20026;-72
2022/05/12 05:13:23;;;;;;;32.72;4.32;;;20.30;99.90;;;;;;4993849;28;20022;-71
2022/05/12 05:15:53;;;;;;;33.65;5.97;;;20.30;99.90;;;;;;4994305;28;20027;-70
2022/05/12 05:18:22;;;;;;;30.80;5.83;;;20.20;99.90;;;;;;4993853;28;20014;-72
2022/05/12 05:20:50;;;;;;;30.52;4.47;;;20.20;99.90;;;;;;4993829;28;20306;-72
2022/05/12 05:23:21;;;;;;;24.70;5.32;;;20.10;99.90;;;;;;4993810;28;20027;-73
2022/05/12 05:25:49;;;;;;;28.20;4.80;;;20.00;99.90;;;;;;4993865;28;20160;-73
2022/05/12 05:28:18;;;;;;;22.90;5.03;;;19.90;99.90;;;;;;4993896;28;20018;-73
2022/05/12 05:30:45;;;;;;;27.27;4.43;;;19.90;99.90;;;;;;4993213;28;20388;-73
2022/05/12 05:33:12;;;;;;;25.92;4.40;;;19.80;99.90;;;;;;4993845;28;20022;-73
2022/05/12 05:35:40;;;;;;;24.08;3.70;;;19.70;99.90;;;;;;4993760;28;20386;-73
2022/05/12 05:38:08;;;;;;;24.67;4.90;;;19.70;99.90;;;;;;4993563;28;20106;-73
2022/05/12 05:40:35;;;;;;;22.98;4.20;;;19.70;99.90;;;;;;4993646;28;20022;-73
2022/05/12 05:43:03;;;;;;;21.27;3.55;;;19.60;99.90;;;;;;4993470;28;20014;-73
2022/05/12 05:45:31;;;;;;;22.23;4.15;;;19.60;99.90;;;;;;4993518;28;20026;-73
2022/05/12 05:48:02;;;;;;;20.15;4.00;;;19.60;99.90;;;;;;4993358;28;20085;-73
2022/05/12 05:53:23;;;;;;;20.40;3.70;;;19.60;99.90;;;;;;4993632;28;20073;-73
2022/05/12 05:53:25;;;;;;;22.85;4.05;;;19.60;99.90;;;;;;4993414;28;20069;-72
2022/05/12 05:55:56;;;;;;;19.92;3.92;;;19.60;99.90;;;;;;4993477;28;20030;-72
2022/05/12 05:58:24;;;;;;;22.88;4.68;;;19.50;99.90;;;;;;4993632;28;20089;-72
2022/05/12 06:00:54;;;;;;;20.63;4.35;;;19.50;99.90;;;;;;4995128;28;20033;-74
2022/05/12 06:03:22;;;;;;;22.60;4.70;;;19.50;99.90;;;;;;4997452;28;20030;-73
2022/05/12 06:05:50;;;;;;;25.75;4.28;;;19.50;99.90;;;;;;4997231;28;20048;-74
2022/05/12 06:08:20;;;;;;;21.83;3.97;;;19.50;99.90;;;;;;4996084;28;20058;-72
2022/05/12 06:10:48;;;;;;;19.63;3.00;;;19.40;99.90;;;;;;4997335;28;20394;-74
2022/05/12 06:13:16;;;;;;;24.15;4.22;;;19.40;99.90;;;;;;4997232;28;20072;-74
2022/05/12 06:15:43;;;;;;;22.15;3.20;;;19.40;99.90;;;;;;4995836;28;20054;-74
2022/05/12 06:18:17;;;;;;;21.30;3.60;;;19.30;99.90;;;;;;4997129;28;20023;-74
2022/05/12 06:20:47;;;;;;;21.25;3.50;;;19.30;99.90;;;;;;4997480;28;20480;-74
2022/05/12 06:23:15;;;;;;;24.55;4.03;;;19.30;99.90;;;;;;4996106;28;20510;-74
2022/05/12 06:25:42;;;;;;;19.27;3.53;;;19.30;99.90;;;;;;4997153;28;20065;-74
2022/05/12 06:28:10;;;;;;;20.67;3.40;;;19.30;99.90;;;;;;4995881;28;20022;-75
2022/05/12 06:30:38;;;;;;;15.98;3.10;;;19.30;99.90;;;;;;4995799;28;20029;-76
2022/05/12 06:33:06;;;;;;;21.08;3.50;;;19.20;99.90;;;;;;4995726;28;20022;-74
2022/05/12 06:35:33;;;;;;;25.20;4.55;;;19.20;99.90;;;;;;4995586;28;20026;-75
2022/05/12 06:38:01;;;;;;;21.73;3.83;;;19.20;99.90;;;;;;4995600;28;20058;-75
2022/05/12 06:40:28;;;;;;;28.00;4.60;;;19.20;99.90;;;;;;4996731;28;20030;-75
2022/05/12 06:42:55;;;;;;;22.08;3.53;;;19.20;99.90;;;;;;4995441;28;20395;-75
2022/05/12 06:45:23;;;;;;;22.23;3.80;;;19.20;99.90;;;;;;4996738;28;20101;-75
2022/05/12 06:47:54;;;;;;;16.92;3.47;;;19.10;99.90;;;;;;4995527;28;20452;-76
2022/05/12 06:50:28;;;;;;;25.67;4.13;;;19.10;99.90;;;;;;4996735;28;20049;-75
2022/05/12 06:52:55;;;;;;;26.00;4.38;;;19.10;99.90;;;;;;4996717;28;20033;-77
2022/05/12 06:55:27;;;;;;;20.17;3.70;;;19.10;99.90;;;;;;4995423;28;20026;-75
2022/05/12 06:57:55;;;;;;;20.15;3.72;;;19.10;99.90;;;;;;4997109;28;20043;-76
2022/05/12 07:00:23;;;;;;;23.40;4.75;;;19.10;99.90;;;;;;4997186;28;20034;-76
2022/05/12 07:02:52;;;;;;;21.13;3.97;;;19.10;99.90;;;;;;4996785;28;20034;-76
2022/05/12 07:05:22;;;;;;;25.85;3.53;;;19.10;99.90;;;;;;4995141;28;20113;-76
2022/05/12 07:07:50;;;;;;;27.38;4.25;;;19.00;99.90;;;;;;4996808;28;20026;-75
2022/05/12 07:10:20;;;;;;;18.70;3.42;;;19.10;99.90;;;;;;4995060;28;20030;-75
2022/05/12 07:12:47;;;;;;;18.33;3.22;;;19.10;99.90;;;;;;4995979;28;20022;-76
2022/05/12 07:15:15;;;;;;;22.88;4.43;;;19.10;99.90;;;;;;4996412;28;20023;-74
2022/05/12 07:17:44;;;;;;;27.48;4.78;;;19.10;99.90;;;;;;4995005;28;20034;-76
2022/05/12 07:28:35;;;;;;;21.45;3.90;;;19.20;99.90;;;;;;4997202;28;20037;-75
2022/05/12 07:31:05;;;;;;;18.73;3.22;;;19.20;99.90;;;;;;4995398;28;20479;-74
2022/05/12 07:33:36;;;;;;;19.85;3.78;;;19.20;99.90;;;;;;4996599;28;20030;-75
2022/05/12 07:36:09;;;;;;;20.67;3.47;;;19.20;99.90;;;;;;4996466;28;20022;-75
2022/05/12 07:38:37;;;;;;;22.75;4.03;;;19.30;99.90;;;;;;4995174;28;20121;-74
2022/05/12 07:41:07;;;;;;;28.20;4.68;;;19.20;99.90;;;;;;4996486;28;20042;-74
2022/05/12 07:43:34;;;;;;;22.08;3.88;;;19.30;99.90;;;;;;4996532;28;20477;-74
2022/05/12 07:46:01;;;;;;;24.38;3.92;;;19.30;99.90;;;;;;4996296;28;20018;-74
2022/05/12 07:48:29;;;;;;;26.50;3.65;;;19.30;99.90;;;;;;4996025;28;20406;-75
2022/05/12 07:50:56;;;;;;;22.00;4.18;;;19.30;99.90;;;;;;4995758;28;20434;-73
2022/05/12 07:53:23;;;;;;;20.90;3.83;;;19.30;99.90;;;;;;4994424;28;20053;-73
2022/05/12 07:55:51;;;;;;;22.10;4.45;;;19.30;99.90;;;;;;4994656;28;20065;-74
2022/05/12 07:58:19;;;;;;;22.92;4.18;;;19.40;99.90;;;;;;4997939;28;20042;-74
2022/05/12 08:00:47;;;;;;;27.42;3.97;;;19.40;99.90;;;;;;4995966;28;20019;-75
2022/05/12 08:03:14;;;;;;;27.98;4.25;;;19.30;99.90;;;;;;4996060;28;20041;-74
2022/05/12 08:05:42;;;;;;;25.85;4.60;;;19.40;99.90;;;;;;4995801;28;20058;-75
2022/05/12 08:08:10;;;;;;;28.25;3.60;;;19.40;99.90;;;;;;4995788;28;20026;-75
2022/05/12 08:10:38;;;;;;;28.02;3.92;;;19.40;99.90;;;;;;4996242;28;20022;-75
2022/05/12 08:13:07;;;;;;;26.13;4.00;;;19.40;99.90;;;;;;4996006;28;20377;-74
2022/05/12 08:15:35;;;;;;;28.15;4.78;;;19.40;99.90;;;;;;4994454;28;20487;-75
2022/05/12 08:18:02;;;;;;;27.63;4.50;;;19.40;99.90;;;;;;4995363;28;20029;-73
2022/05/12 08:20:29;;;;;;;28.45;4.03;;;19.40;99.90;;;;;;4994991;28;20471;-72
2022/05/12 08:22:56;;;;;;;24.70;5.70;;;19.40;99.90;;;;;;4994775;28;20035;-72
2022/05/12 08:25:24;;;;;;;24.25;4.25;;;19.40;99.90;;;;;;4995207;28;20051;-73
2022/05/12 08:27:51;;;;;;;24.70;3.83;;;19.40;99.90;;;;;;4995575;28;20487;-73
2022/05/12 08:30:19;;;;;;;24.00;5.38;;;19.30;99.90;;;;;;4995010;28;20054;-74
2022/05/12 08:32:47;;;;;;;27.90;4.15;;;19.30;99.90;;;;;;4993697;28;20065;-73
2022/05/12 08:35:14;;;;;;;24.02;4.43;;;19.30;99.90;;;;;;4994633;28;20456;-74
2022/05/12 08:37:42;;;;;;;24.90;4.10;;;19.30;99.90;;;;;;4994693;28;20022;-74
2022/05/12 08:40:42;;;;;;;27.63;5.28;;;19.30;99.90;;;;;;4993156;28;20069;-74
2022/05/12 08:43:22;;;;;;;23.75;3.88;;;19.30;99.90;;;;;;4942646;28;20063;-73
2022/05/12 08:45:54;;;;;;;22.33;3.95;;;19.30;99.90;;;;;;4994526;28;20029;-73
2022/05/12 08:48:21;;;;;;;21.77;3.95;;;19.20;99.90;;;;;;4994698;28;20026;-73
2022/05/12 08:50:53;;;;;;;26.52;4.25;;;19.20;99.90;;;;;;4994384;28;20102;-74
2022/05/12 08:53:29;;;;;;;20.15;3.78;;;19.20;99.90;;;;;;4993149;28;20026;-73
2022/05/12 08:55:59;;;;;;;25.05;4.55;;;19.20;99.90;;;;;;4994735;28;20431;-74
2022/05/12 08:58:33;;;;;;;29.73;5.07;;;19.20;99.90;;;;;;4994234;28;20382;-73
2022/05/12 09:01:17;;;;;;;26.05;4.03;;;19.20;99.90;;;;;;4992959;28;20325;-73
2022/05/12 09:04:21;;;;;;;20.98;4.05;;;19.20;99.90;;;;;;4993015;28;20026;-72
2022/05/12 09:06:48;;;;;;;21.00;4.15;;;19.20;99.90;;;;;;4994422;28;20113;-74
2022/05/12 09:09:51;;;;;;;31.30;4.70;;;19.20;99.90;;;;;;4994244;28;20018;-74
2022/05/12 09:12:55;;;;;;;20.88;4.25;;;19.20;99.90;;;;;;4994207;28;20019;-74
2022/05/12 09:16:05;;;;;;;30.33;5.05;;;19.20;99.90;;;;;;4994031;28;20026;-74
2022/05/12 09:18:33;;;;;;;;;;;19.10;99.90;;;;;;4947946;28;20410;-73
2022/05/12 09:21:04;;;;;;;22.15;3.63;;;19.10;99.90;;;;;;4993955;28;19964;-75
2022/05/12 09:23:31;;;;;;;22.75;3.85;;;19.10;99.90;;;;;;4993990;28;20073;-72
2022/05/12 09:25:59;;;;;;;23.92;4.47;;;19.10;99.90;;;;;;4994384;28;20015;-74
2022/05/12 09:28:40;;;;;;;22.25;4.22;;;19.10;99.90;;;;;;4993875;28;20022;-74
2022/05/12 09:31:15;;;;;;;23.88;4.10;;;19.10;99.90;;;;;;4994074;28;20109;-74
2022/05/12 09:33:43;;;;;;;23.48;4.38;;;19.10;99.90;;;;;;4993665;28;20018;-74
2022/05/12 09:36:17;;;;;;;21.40;3.85;;;19.10;99.90;;;;;;4993452;28;20022;-74
2022/05/12 09:38:48;;;;;;;24.92;3.95;;;19.10;99.90;;;;;;4992468;28;20022;-74
2022/05/12 09:41:21;;;;;;;;;;;19.10;99.90;;;;;;4992816;28;20026;-74
2022/05/12 09:43:53;;;;;;;26.20;4.10;;;19.10;99.90;;;;;;4993965;28;20377;-74
2022/05/12 09:46:23;;;;;;;20.98;4.00;;;19.10;99.90;;;;;;4993727;28;20105;-73
2022/05/12 09:48:50;;;;;;;17.70;3.57;;;19.10;99.90;;;;;;4993878;28;20053;-73
2022/05/12 09:51:23;;;;;;;24.35;4.68;;;19.00;99.90;;;;;;4992310;28;20272;-73
2022/05/12 09:53:53;;;;;;;16.58;3.05;;;19.00;99.90;;;;;;4994193;28;20085;-73
2022/05/12 09:56:33;;;;;;;19.38;3.30;;;19.10;99.90;;;;;;4993585;28;20030;-73
2022/05/12 09:59:10;;;;;;;17.30;3.50;;;19.00;99.90;;;;;;4992296;28;20085;-73
2022/05/12 10:01:51;;;;;;;18.10;3.17;;;19.00;99.90;;;;;;4993587;28;20054;-73
2022/05/12 10:10:14;;;;;;;22.17;3.63;;;19.00;99.90;;;;;;4993247;28;20034;-73
2022/05/12 10:12:59;;;;;;;19.17;3.67;;;19.00;99.90;;;;;;4993292;28;20025;-74
2022/05/12 10:15:35;;;;;;;21.60;4.15;;;19.00;99.90;;;;;;4993218;28;20046;-74
2022/05/12 10:18:21;;;;;;;21.08;3.47;;;19.00;99.90;;;;;;4992104;28;20377;-74
2022/05/12 10:20:52;;;;;;;16.35;3.25;;;19.00;99.90;;;;;;4991835;28;20446;-73
2022/05/12 10:23:30;;;;;;;22.88;3.35;;;19.00;99.90;;;;;;4993079;28;20022;-74
2022/05/12 10:26:15;;;;;;;17.98;3.88;;;19.00;99.90;;;;;;4993476;28;20027;-73
2022/05/12 10:29:05;;;;;;;16.25;3.25;;;18.90;99.90;;;;;;4991979;28;20031;-74
2022/05/12 10:31:48;;;;;;;21.92;3.72;;;19.00;99.90;;;;;;4993386;28;20058;-75
2022/05/12 10:34:38;;;;;;;18.33;3.65;;;18.90;99.90;;;;;;4992176;28;20030;-74
2022/05/12 10:37:31;;;;;;;17.00;3.60;;;19.00;99.90;;;;;;4993428;28;20022;-74
2022/05/12 10:40:26;;;;;;;19.00;3.90;;;18.90;99.90;;;;;;4987809;28;20034;-74
2022/05/12 10:43:26;;;;;;;19.88;5.00;;;18.90;99.90;;;;;;4992953;28;20026;-74
2022/05/12 10:46:19;;;;;;;21.05;4.05;;;18.90;99.90;;;;;;4993422;28;20134;-74
2022/05/12 10:49:03;;;;;;;22.42;4.53;;;19.00;99.90;;;;;;4995421;28;20062;-73
2022/05/12 10:51:48;;;;;;;25.13;4.35;;;19.00;99.90;;;;;;4996528;28;20077;-73
2022/05/12 10:54:53;;;;;;;22.27;4.75;;;18.90;99.90;;;;;;4995195;28;20034;-72
2022/05/12 10:57:39;;;;;;;27.45;5.10;;;18.90;99.90;;;;;;4974986;28;20114;-72
2022/05/12 11:00:09;;;;;;;22.83;5.20;;;18.90;99.90;;;;;;4992296;28;20088;-73
2022/05/12 11:02:43;;;;;;;32.83;5.78;;;18.90;99.90;;;;;;4994977;28;20030;-73
2022/05/12 11:05:21;;;;;;;30.25;4.22;;;18.80;99.90;;;;;;4996124;28;20082;-72
2022/05/12 11:07:54;;;;;;;23.10;4.82;;;18.90;99.90;;;;;;4996396;28;20475;-73
2022/05/12 11:10:35;;;;;;;18.83;4.05;;;18.80;99.90;;;;;;4994943;28;20026;-73
2022/05/12 11:13:18;;;;;;;23.70;4.10;;;18.80;99.90;;;;;;4995010;28;20026;-72
2022/05/12 11:16:06;;;;;;;27.25;5.18;;;18.80;99.90;;;;;;4996255;28;20092;-72
2022/05/12 11:19:09;;;;;;;24.45;5.35;;;18.80;99.90;;;;;;4996239;28;20101;-73
2022/05/12 11:22:09;;;;;;;27.35;4.45;;;18.80;99.90;;;;;;4987649;28;20038;-72
2022/05/12 11:24:54;;;;;;;30.08;4.45;;;18.90;99.90;;;;;;4996328;28;20088;-73
2022/05/12 11:27:49;;;;;;;26.50;4.80;;;18.90;99.90;;;;;;4995939;28;20023;-73
2022/05/12 11:30:31;;;;;;;22.90;4.55;;;18.80;99.90;;;;;;4996313;28;20112;-71
2022/05/12 11:33:16;;;;;;;24.17;4.18;;;18.80;99.90;;;;;;4996144;28;20382;-73
2022/05/12 11:35:48;;;;;;;21.23;3.70;;;18.80;99.90;;;;;;4994541;28;20061;-74
2022/05/12 11:38:39;;;;;;;23.45;4.07;;;18.80;99.90;;;;;;4995863;28;20023;-73
2022/05/12 11:41:08;;;;;;;19.27;3.42;;;18.80;99.90;;;;;;4989736;28;20495;-73
2022/05/12 11:47:09;;;;;;;24.20;4.53;;;18.80;99.90;;;;;;4996018;28;20117;-74
2022/05/12 11:50:04;;;;;;;18.38;3.95;;;18.80;99.90;;;;;;4994298;28;20026;-74
2022/05/12 11:53:01;;;;;;;24.23;4.63;;;18.80;99.90;;;;;;4995516;28;20027;-74
2022/05/12 11:55:31;;;;;;;16.65;3.10;;;18.80;99.90;;;;;;4995462;28;20030;-74
2022/05/12 11:58:01;;;;;;;21.77;3.97;;;18.80;99.90;;;;;;4995038;28;20045;-74
2022/05/12 12:00:34;;;;;;;;;;;18.80;99.90;;;;;;4995861;28;20030;-74
2022/05/12 12:03:19;;;;;;;21.77;3.58;;;18.80;99.90;;;;;;4995220;28;20401;-74
2022/05/12 12:05:50;;;;;;;19.20;3.85;;;18.70;99.90;;;;;;4995028;28;20053;-74
2022/05/12 12:08:32;;;;;;;19.67;3.25;;;18.70;99.90;;;;;;4995207;28;20053;-74
2022/05/12 12:11:14;;;;;;;20.95;3.63;;;18.70;99.90;;;;;;4995313;28;20023;-75
2022/05/12 12:13:44;;;;;;;19.08;4.00;;;18.70;99.90;;;;;;4993752;28;20027;-74
2022/05/12 12:16:24;;;;;;;21.10;4.22;;;18.70;99.90;;;;;;4994145;28;20073;-74
2022/05/12 12:19:03;;;;;;;20.05;3.85;;;18.70;99.90;;;;;;4994583;28;20027;-74
2022/05/12 12:21:44;;;;;;;22.55;4.50;;;18.70;99.90;;;;;;4994955;28;20034;-74
2022/05/12 12:24:20;;;;;;;28.45;4.20;;;18.70;99.90;;;;;;4993650;28;20448;-74
2022/05/12 12:26:56;;;;;;;19.13;3.90;;;18.70;99.90;;;;;;4995156;28;20487;-74
2022/05/12 12:29:42;;;;;;;23.33;3.60;;;18.70;99.90;;;;;;4993552;28;20023;-74
2022/05/12 12:32:30;;;;;;;18.67;4.10;;;18.70;99.90;;;;;;4995066;28;20029;-74
2022/05/12 12:35:26;;;;;;;21.83;4.22;;;18.80;99.90;;;;;;4994780;28;20030;-74
2022/05/12 12:37:54;;;;;;;15.23;4.35;;;18.80;99.90;;;;;;4994730;28;20029;-74
2022/05/12 12:40:33;;;;;;;19.98;3.33;;;18.80;99.90;;;;;;4994518;28;20026;-74
2022/05/12 12:43:22;;;;;;;13.73;3.70;;;18.80;99.90;;;;;;4993115;28;20037;-74
2022/05/12 12:45:53;;;;;;;19.25;4.78;;;18.80;99.90;;;;;;4963745;28;20041;-73
2022/05/12 12:48:38;;;;;;;15.45;3.33;;;18.80;99.90;;;;;;4994839;28;20022;-74
2022/05/12 12:51:05;;;;;;;17.00;4.13;;;18.90;99.90;;;;;;4993391;28;20127;-74
2022/05/12 12:56:30;;;;;;;19.40;4.47;;;18.90;99.90;;;;;;4994498;28;20033;-73
2022/05/12 12:59:02;;;;;;;17.05;5.07;;;18.90;99.90;;;;;;4994287;28;20034;-73
2022/05/12 13:01:50;;;;;;;16.90;3.80;;;18.80;99.90;;;;;;4994315;28;20482;-73
2022/05/12 13:04:26;;;;;;;16.92;3.83;;;18.80;99.90;;;;;;4994080;28;20076;-74
2022/05/12 13:06:56;;;;;;;18.65;4.43;;;18.90;99.90;;;;;;4994140;28;20033;-73
2022/05/12 13:09:30;;;;;;;18.25;4.70;;;18.80;99.90;;;;;;4993455;28;20019;-74
2022/05/12 13:12:16;;;;;;;14.93;4.80;;;18.80;99.90;;;;;;4993230;28;20376;-73
2022/05/12 13:14:45;;;;;;;12.55;4.38;;;18.80;99.90;;;;;;4994068;28;20368;-73
2022/05/12 13:17:21;;;;;;;18.00;4.88;;;18.80;99.90;;;;;;4993906;28;20029;-74
2022/05/12 13:19:50;;;;;;;16.63;5.35;;;18.80;99.90;;;;;;4994113;28;20030;-73
2022/05/12 13:22:30;;;;;;;14.63;4.93;;;18.80;99.90;;;;;;4992512;28;20030;-74
2022/05/12 13:24:58;;;;;;;17.52;5.28;;;18.80;99.90;;;;;;4992633;28;20022;-73
2022/05/12 13:27:35;;;;;;;14.98;5.15;;;18.70;99.90;;;;;;4993856;28;20109;-73
2022/05/12 13:30:05;;;;;;;12.45;4.78;;;18.80;99.90;;;;;;4993835;28;20023;-72